Time;durP1;ratioP1;P1;durP2;ratioP2;P2;SDS_P1;SDS_P2;PMS_P1;PMS_P2;Temp;Humidity;BMP_temperature;BMP_pressure;BME280_temperature;BME280_humidity;BME280_pressure;Samples;Min_cycle;Max_cycle;Signal;HPM_P1;HPM_P2
2023/11/08 00:00:37;;;;;;;10.53;2.73;;;9.00;99.90;;;;;;5047757;28;20541;-73
2023/11/08 00:03:22;;;;;;;8.07;2.20;;;9.00;99.90;;;;;;5056311;28;20967;-73
2023/11/08 00:06:10;;;;;;;10.30;2.43;;;8.90;99.90;;;;;;5058552;28;20980;-73
2023/11/08 00:08:58;;;;;;;6.17;2.20;;;9.00;99.90;;;;;;5049444;28;20974;-75
2023/11/08 00:11:44;;;;;;;5.83;1.90;;;9.00;99.90;;;;;;5056595;28;20446;-73
2023/11/08 00:14:29;;;;;;;7.37;1.90;;;9.00;99.90;;;;;;5054355;28;20443;-73
2023/11/08 00:17:16;;;;;;;5.27;1.93;;;9.00;99.90;;;;;;5048457;28;20444;-72
2023/11/08 00:20:02;;;;;;;10.30;2.57;;;9.00;99.90;;;;;;5052822;28;20589;-72
2023/11/08 00:22:49;;;;;;;5.00;1.90;;;9.00;99.90;;;;;;5051895;28;20439;-73
2023/11/08 00:25:35;;;;;;;5.13;2.20;;;9.00;99.90;;;;;;5061943;28;20491;-72
2023/11/08 00:28:20;;;;;;;7.07;2.17;;;9.00;99.90;;;;;;5064697;28;20521;-75
2023/11/08 00:31:06;;;;;;;5.40;1.80;;;9.10;99.90;;;;;;5061303;28;20475;-74
2023/11/08 00:33:53;;;;;;;6.07;2.10;;;9.00;99.90;;;;;;5054697;28;20549;-72
2023/11/08 00:36:38;;;;;;;7.60;2.47;;;9.10;99.90;;;;;;5056823;28;20444;-73
2023/11/08 00:39:25;;;;;;;5.60;2.17;;;9.10;99.90;;;;;;5051959;28;20473;-73
2023/11/08 00:42:11;;;;;;;6.20;1.63;;;9.00;99.90;;;;;;5054017;28;20434;-74
2023/11/08 00:44:56;;;;;;;6.70;2.20;;;9.00;99.90;;;;;;5049511;28;20439;-73
2023/11/08 00:47:43;;;;;;;7.10;2.30;;;9.00;99.90;;;;;;5052873;28;20979;-72
2023/11/08 00:50:29;;;;;;;5.97;1.70;;;9.00;99.90;;;;;;5054233;28;20472;-75
2023/11/08 00:53:15;;;;;;;7.00;1.73;;;9.00;99.90;;;;;;5050797;28;20960;-75
2023/11/08 00:56:02;;;;;;;5.93;2.30;;;9.00;99.90;;;;;;5058266;28;20493;-74
2023/11/08 00:58:48;;;;;;;6.90;2.93;;;9.00;99.90;;;;;;5060687;28;20514;-72
2023/11/08 01:01:35;;;;;;;6.87;2.03;;;9.10;99.90;;;;;;5059604;28;20461;-75
2023/11/08 01:04:20;;;;;;;10.90;2.10;;;9.00;99.90;;;;;;5054318;28;20467;-73
2023/11/08 01:07:06;;;;;;;5.90;2.40;;;9.00;99.90;;;;;;5058974;28;20466;-73
2023/11/08 01:09:51;;;;;;;8.37;2.07;;;9.10;99.90;;;;;;5055127;28;20487;-73
2023/11/08 01:12:38;;;;;;;9.47;1.93;;;9.10;99.90;;;;;;5057942;28;20447;-73
2023/11/08 01:15:24;;;;;;;12.53;2.00;;;9.20;99.90;;;;;;5059313;28;20882;-73
2023/11/08 01:18:10;;;;;;;5.50;2.10;;;9.20;99.90;;;;;;5054328;28;20440;-75
2023/11/08 01:20:55;;;;;;;6.17;2.30;;;9.20;99.90;;;;;;5061565;28;20595;-74
2023/11/08 01:23:41;;;;;;;4.00;2.27;;;9.20;99.90;;;;;;5054828;28;20461;-75
2023/11/08 01:26:27;;;;;;;5.67;1.70;;;9.30;99.90;;;;;;5055097;28;20469;-73
2023/11/08 01:29:14;;;;;;;7.63;2.17;;;9.10;99.90;;;;;;5054922;28;20438;-72
2023/11/08 01:31:59;;;;;;;5.23;1.93;;;9.10;99.90;;;;;;5057888;28;20821;-72
2023/11/08 01:34:45;;;;;;;5.43;2.17;;;9.10;99.90;;;;;;5061606;28;20478;-73
2023/11/08 01:37:31;;;;;;;8.13;2.37;;;9.10;99.90;;;;;;5056380;28;20455;-75
2023/11/08 01:40:18;;;;;;;5.00;2.07;;;9.10;99.90;;;;;;5053882;28;20888;-73
2023/11/08 01:43:04;;;;;;;5.53;1.77;;;9.10;99.90;;;;;;5060055;28;20978;-74
2023/11/08 01:45:55;;;;;;;8.23;1.97;;;9.20;99.90;;;;;;5051609;28;20477;-73
2023/11/08 01:48:41;;;;;;;8.13;2.30;;;9.30;99.90;;;;;;5054038;28;20477;-74
2023/11/08 01:51:27;;;;;;;4.17;2.07;;;9.20;99.90;;;;;;5053194;28;20452;-73
2023/11/08 01:54:14;;;;;;;6.90;2.10;;;9.20;99.90;;;;;;5055270;28;21096;-73
2023/11/08 01:57:02;;;;;;;5.13;2.27;;;9.20;99.90;;;;;;5059177;28;20950;-73
2023/11/08 01:59:49;;;;;;;5.83;2.47;;;9.10;99.90;;;;;;5055561;28;20846;-74
2023/11/08 02:02:38;;;;;;;7.00;1.90;;;9.00;99.90;;;;;;5052953;28;20522;-73
2023/11/08 02:05:24;;;;;;;8.03;3.20;;;8.90;99.90;;;;;;5059108;28;20463;-72
2023/11/08 02:08:10;;;;;;;5.90;2.00;;;8.80;99.90;;;;;;5055128;28;20808;-72
2023/11/08 02:10:56;;;;;;;5.43;2.23;;;8.90;99.90;;;;;;5061985;28;20954;-73
2023/11/08 02:13:42;;;;;;;8.93;2.17;;;8.90;99.90;;;;;;5065142;28;20442;-73
2023/11/08 02:16:31;;;;;;;7.63;2.30;;;8.90;99.90;;;;;;5051629;28;20500;-73
2023/11/08 02:19:18;;;;;;;5.30;2.50;;;8.90;99.90;;;;;;5052089;28;20448;-72
2023/11/08 02:22:03;;;;;;;5.60;2.23;;;8.90;99.90;;;;;;5054052;28;20447;-74
2023/11/08 02:24:51;;;;;;;6.90;2.70;;;9.00;99.90;;;;;;5053894;28;20982;-73
2023/11/08 02:27:37;;;;;;;10.63;2.50;;;9.00;99.90;;;;;;5056983;28;20722;-73
2023/11/08 02:30:23;;;;;;;8.97;2.80;;;9.00;99.90;;;;;;5051904;28;20472;-72
2023/11/08 02:33:09;;;;;;;4.20;2.07;;;8.90;99.90;;;;;;5052008;28;20505;-73
2023/11/08 02:35:57;;;;;;;6.57;2.40;;;8.90;99.90;;;;;;5059707;28;20435;-73
2023/11/08 02:38:42;;;;;;;4.37;2.23;;;8.70;99.90;;;;;;5059128;28;20448;-73
2023/11/08 02:41:29;;;;;;;5.53;1.90;;;8.80;99.90;;;;;;5057867;28;20448;-72
2023/11/08 02:44:15;;;;;;;8.70;2.23;;;8.80;99.90;;;;;;5050107;28;20447;-72
2023/11/08 02:47:01;;;;;;;5.43;2.23;;;8.80;99.90;;;;;;5053309;28;21003;-73
2023/11/08 02:49:47;;;;;;;5.20;2.40;;;8.80;99.90;;;;;;5055472;28;21058;-72
2023/11/08 02:52:33;;;;;;;14.40;2.43;;;8.80;99.90;;;;;;5055498;28;20446;-73
2023/11/08 02:55:18;;;;;;;9.17;2.10;;;8.80;99.90;;;;;;5058048;28;20963;-73
2023/11/08 02:58:05;;;;;;;3.97;2.33;;;8.80;99.90;;;;;;5054874;28;20777;-73
2023/11/08 03:00:54;;;;;;;18.43;2.83;;;8.70;99.90;;;;;;5058236;28;21020;-73
2023/11/08 03:03:40;;;;;;;11.60;3.13;;;8.60;99.90;;;;;;5058719;28;20436;-76
2023/11/08 03:06:26;;;;;;;10.27;3.10;;;8.60;99.90;;;;;;5059063;28;20450;-72
2023/11/08 03:09:11;;;;;;;8.80;2.10;;;8.60;99.90;;;;;;5052281;28;20452;-73
2023/11/08 03:11:58;;;;;;;11.53;2.50;;;8.60;99.90;;;;;;5089488;22;20490;-76
2023/11/08 03:14:45;;;;;;;4.17;2.33;;;8.70;99.90;;;;;;5077772;28;20458;-75
2023/11/08 03:17:30;;;;;;;4.93;2.20;;;8.80;99.90;;;;;;5076083;28;20795;-77
2023/11/08 03:20:16;;;;;;;3.47;2.60;;;8.80;99.90;;;;;;5077456;28;21140;-76
2023/11/08 03:23:02;;;;;;;3.50;2.10;;;8.90;99.90;;;;;;5070466;28;20455;-76
2023/11/08 03:25:48;;;;;;;5.20;2.60;;;9.00;99.90;;;;;;5072541;28;20502;-76
2023/11/08 03:28:33;;;;;;;9.40;2.50;;;9.00;99.90;;;;;;5075837;28;20466;-76
2023/11/08 03:31:20;;;;;;;9.93;3.10;;;9.00;99.90;;;;;;5073012;28;20469;-76
2023/11/08 03:34:06;;;;;;;10.33;2.40;;;9.00;99.90;;;;;;5066709;28;20559;-75
2023/11/08 03:36:51;;;;;;;15.50;2.97;;;9.00;99.90;;;;;;5069062;28;20620;-76
2023/11/08 03:39:37;;;;;;;7.23;2.27;;;9.00;99.90;;;;;;5078068;28;20485;-76
2023/11/08 03:42:25;;;;;;;6.37;2.73;;;9.10;99.90;;;;;;5068380;28;20447;-75
2023/11/08 03:45:11;;;;;;;8.63;2.43;;;9.10;99.90;;;;;;5077182;28;20522;-76
2023/11/08 03:47:58;;;;;;;7.40;1.73;;;9.10;99.90;;;;;;5077568;28;20471;-75
2023/11/08 03:50:44;;;;;;;5.87;2.23;;;9.00;99.90;;;;;;5076858;28;20474;-76
2023/11/08 03:53:30;;;;;;;6.40;2.70;;;9.00;99.90;;;;;;5079575;28;20445;-75
2023/11/08 03:56:16;;;;;;;6.93;2.47;;;8.90;99.90;;;;;;5075434;28;20459;-76
2023/11/08 03:59:01;;;;;;;8.60;2.37;;;8.90;99.90;;;;;;5073630;28;20434;-76
2023/11/08 04:01:47;;;;;;;4.73;2.03;;;8.80;99.90;;;;;;5075018;28;21070;-75
2023/11/08 04:04:34;;;;;;;6.03;2.77;;;8.80;99.90;;;;;;5075805;28;20576;-75
2023/11/08 04:07:20;;;;;;;13.77;2.47;;;8.80;99.90;;;;;;5085451;28;20492;-75
2023/11/08 04:10:07;;;;;;;10.13;2.67;;;8.80;99.90;;;;;;5074587;28;20523;-75
2023/11/08 04:12:52;;;;;;;3.83;2.20;;;8.80;99.90;;;;;;5076084;28;20959;-76
2023/11/08 04:15:38;;;;;;;8.00;3.80;;;8.70;99.90;;;;;;5064761;28;20599;-76
2023/11/08 04:18:24;;;;;;;8.70;3.13;;;8.60;99.90;;;;;;5071238;28;20443;-77
2023/11/08 04:21:10;;;;;;;10.50;3.63;;;8.70;99.90;;;;;;5070977;28;20519;-75
2023/11/08 04:23:56;;;;;;;9.00;3.10;;;8.70;99.90;;;;;;5065679;28;20966;-75
2023/11/08 04:26:42;;;;;;;10.40;4.63;;;8.60;99.90;;;;;;5059406;28;20624;-76
2023/11/08 04:29:28;;;;;;;5.77;2.30;;;8.70;99.90;;;;;;5063450;28;20519;-76
2023/11/08 04:32:14;;;;;;;5.77;2.70;;;8.70;99.90;;;;;;5065155;28;20447;-75
2023/11/08 04:34:59;;;;;;;7.87;2.67;;;8.70;99.90;;;;;;5071639;28;20443;-75
2023/11/08 04:37:46;;;;;;;4.20;2.60;;;8.70;99.90;;;;;;5060450;28;20472;-75
2023/11/08 04:40:32;;;;;;;9.47;2.80;;;8.70;99.90;;;;;;5058667;28;20472;-75
2023/11/08 04:43:17;;;;;;;5.17;1.80;;;8.70;99.90;;;;;;5068847;28;20436;-75
2023/11/08 04:46:03;;;;;;;6.37;2.73;;;8.60;99.90;;;;;;5072597;28;20492;-76
2023/11/08 04:48:49;;;;;;;7.20;2.67;;;8.60;99.90;;;;;;5074952;28;20547;-75
2023/11/08 04:51:34;;;;;;;5.90;2.53;;;8.70;99.90;;;;;;5071073;28;20478;-76
2023/11/08 04:54:22;;;;;;;9.60;2.90;;;8.70;99.90;;;;;;5076036;28;20462;-75
2023/11/08 04:57:08;;;;;;;6.37;3.03;;;8.70;99.90;;;;;;5070309;28;20448;-75
2023/11/08 04:59:53;;;;;;;7.73;2.30;;;8.80;99.90;;;;;;5076740;28;20607;-75
2023/11/08 05:02:40;;;;;;;3.70;2.30;;;8.80;99.90;;;;;;5079656;28;20577;-76
2023/11/08 05:05:26;;;;;;;5.87;2.20;;;8.70;99.90;;;;;;5074085;28;20903;-76
2023/11/08 05:08:11;;;;;;;4.47;2.50;;;8.70;99.90;;;;;;5079213;28;20826;-76
2023/11/08 05:10:58;;;;;;;5.80;2.10;;;8.70;99.90;;;;;;5072074;28;20548;-76
2023/11/08 05:13:44;;;;;;;6.83;2.80;;;8.70;99.90;;;;;;5071785;28;20585;-75
2023/11/08 05:16:30;;;;;;;5.33;2.33;;;8.70;99.90;;;;;;5075411;28;20555;-76
2023/11/08 05:19:17;;;;;;;6.47;2.10;;;8.60;99.90;;;;;;5071235;28;20824;-75
2023/11/08 05:22:02;;;;;;;8.83;2.70;;;8.70;99.90;;;;;;5073506;28;20454;-75
2023/11/08 05:24:48;;;;;;;6.03;2.60;;;8.60;99.90;;;;;;5076564;28;20641;-75
2023/11/08 05:27:35;;;;;;;10.57;2.40;;;8.60;99.90;;;;;;5077499;28;20541;-76
2023/11/08 05:30:21;;;;;;;7.20;2.60;;;8.70;99.90;;;;;;5068247;28;20517;-75
2023/11/08 05:33:06;;;;;;;5.07;2.53;;;8.60;99.90;;;;;;5065701;28;21065;-75
2023/11/08 05:35:52;;;;;;;5.03;2.43;;;8.70;99.90;;;;;;5067596;28;20967;-75
2023/11/08 05:38:39;;;;;;;8.67;3.43;;;8.70;99.90;;;;;;5078134;28;20443;-76
2023/11/08 05:41:25;;;;;;;8.90;2.90;;;8.70;99.90;;;;;;5065657;28;20459;-75
2023/11/08 05:44:12;;;;;;;11.50;2.93;;;8.70;99.90;;;;;;5070079;28;20439;-76
2023/11/08 05:46:58;;;;;;;8.13;2.70;;;8.80;99.90;;;;;;5064890;28;20482;-75
2023/11/08 05:49:43;;;;;;;9.47;2.60;;;8.70;99.90;;;;;;5070555;28;20625;-76
2023/11/08 05:52:29;;;;;;;10.73;2.63;;;8.70;99.90;;;;;;5071284;28;20452;-76
2023/11/08 05:55:15;;;;;;;10.40;2.53;;;8.70;99.90;;;;;;5065877;28;20456;-76
2023/11/08 05:58:01;;;;;;;10.10;3.13;;;8.80;99.90;;;;;;5067692;28;20914;-76
2023/11/08 06:00:48;;;;;;;6.37;2.50;;;8.60;99.90;;;;;;5062915;28;20738;-75
2023/11/08 06:03:34;;;;;;;4.27;2.50;;;8.60;99.90;;;;;;5071281;28;20548;-77
2023/11/08 06:06:21;;;;;;;4.97;2.67;;;8.70;99.90;;;;;;5078209;28;21039;-75
2023/11/08 06:09:08;;;;;;;6.77;2.80;;;8.70;99.90;;;;;;5076118;28;20669;-76
2023/11/08 06:11:53;;;;;;;8.47;2.50;;;8.70;99.90;;;;;;5069599;28;20475;-75
2023/11/08 06:14:39;;;;;;;10.77;3.13;;;8.70;99.90;;;;;;5074602;28;20506;-75
2023/11/08 06:17:27;;;;;;;6.73;3.23;;;8.70;99.90;;;;;;5074292;28;20439;-75
2023/11/08 06:20:12;;;;;;;8.23;3.10;;;8.70;99.90;;;;;;5078753;28;20464;-75
2023/11/08 06:22:58;;;;;;;7.30;2.53;;;8.70;99.90;;;;;;5077008;28;20447;-75
2023/11/08 06:25:44;;;;;;;4.20;2.73;;;8.60;99.90;;;;;;5078750;28;20443;-76
2023/11/08 06:28:30;;;;;;;3.37;2.40;;;8.70;99.90;;;;;;5069975;28;20475;-76
2023/11/08 06:31:15;;;;;;;10.87;3.60;;;8.80;99.90;;;;;;5075861;28;20474;-75
2023/11/08 06:34:03;;;;;;;10.93;5.93;;;8.90;99.90;;;;;;5078463;28;20910;-75
2023/11/08 06:36:49;;;;;;;5.30;3.47;;;8.80;99.90;;;;;;5076970;28;20934;-75
2023/11/08 06:39:35;;;;;;;17.70;4.90;;;8.90;99.90;;;;;;5081553;28;20501;-75
2023/11/08 06:42:21;;;;;;;9.27;4.60;;;8.70;99.90;;;;;;5072325;28;20587;-75
2023/11/08 06:45:08;;;;;;;8.43;4.53;;;8.80;99.90;;;;;;5075584;28;20492;-75
2023/11/08 06:47:53;;;;;;;6.50;3.50;;;8.80;99.90;;;;;;5080100;28;20473;-76
2023/11/08 06:50:40;;;;;;;8.67;3.00;;;8.80;99.90;;;;;;5068037;28;20478;-76
2023/11/08 06:53:26;;;;;;;16.53;3.23;;;8.80;99.90;;;;;;5075868;28;20813;-76
2023/11/08 06:56:12;;;;;;;7.93;2.70;;;8.80;99.90;;;;;;5070849;28;20810;-75
2023/11/08 06:58:58;;;;;;;5.90;2.37;;;8.70;99.90;;;;;;5077299;28;20888;-76
2023/11/08 07:01:43;;;;;;;8.17;3.30;;;8.70;99.90;;;;;;5073170;28;20482;-75
2023/11/08 07:04:29;;;;;;;7.87;3.70;;;8.60;99.90;;;;;;5078716;28;20446;-75
2023/11/08 07:07:16;;;;;;;6.67;3.27;;;8.60;99.90;;;;;;5076116;28;20487;-75
2023/11/08 07:10:05;;;;;;;9.93;3.40;;;8.70;99.90;;;;;;5068133;28;20527;-75
2023/11/08 07:12:52;;;;;;;4.50;2.87;;;8.70;99.90;;;;;;5072341;28;20976;-76
2023/11/08 07:15:38;;;;;;;7.50;2.90;;;8.70;99.90;;;;;;5080702;28;20446;-76
2023/11/08 07:18:23;;;;;;;4.50;2.70;;;8.70;99.90;;;;;;5067991;28;20444;-75
2023/11/08 07:21:17;;;;;;;6.83;3.57;;;8.80;99.90;;;;;;5075723;28;20828;-76
2023/11/08 07:24:06;;;;;;;3.60;2.20;;;8.80;99.90;;;;;;5074326;28;20439;-76
2023/11/08 07:26:52;;;;;;;7.30;2.63;;;8.90;99.90;;;;;;5078075;28;20442;-77
2023/11/08 07:29:38;;;;;;;5.53;2.83;;;8.90;99.90;;;;;;5074365;28;20451;-75
2023/11/08 07:32:23;;;;;;;7.83;2.87;;;9.00;99.90;;;;;;5076554;28;20491;-76
2023/11/08 07:35:09;;;;;;;4.30;2.40;;;9.00;99.90;;;;;;5074060;28;20438;-77
2023/11/08 07:37:55;;;;;;;8.10;2.40;;;9.00;99.90;;;;;;5077905;28;20453;-75
2023/11/08 07:40:42;;;;;;;8.27;3.00;;;9.00;99.90;;;;;;5074931;28;21057;-76
2023/11/08 07:43:28;;;;;;;10.63;3.83;;;9.10;99.90;;;;;;5062282;28;20550;-76
2023/11/08 07:46:13;;;;;;;7.33;2.73;;;9.10;99.90;;;;;;5061159;28;20560;-76
2023/11/08 07:48:59;;;;;;;8.27;2.50;;;9.10;99.90;;;;;;5061527;28;20462;-75
2023/11/08 07:51:45;;;;;;;7.67;3.13;;;9.00;99.90;;;;;;5076626;28;20557;-76
2023/11/08 07:54:33;;;;;;;5.47;2.17;;;9.00;99.90;;;;;;5074302;28;20441;-77
2023/11/08 07:57:20;;;;;;;7.67;3.47;;;9.00;99.90;;;;;;5076096;28;20854;-76
2023/11/08 08:00:14;;;;;;;14.20;3.10;;;9.00;99.90;;;;;;5069431;28;20466;-75
2023/11/08 08:02:59;;;;;;;5.40;3.10;;;9.10;99.90;;;;;;5075536;28;20448;-75
2023/11/08 08:05:45;;;;;;;6.87;3.17;;;9.00;99.90;;;;;;5075869;28;20474;-76
2023/11/08 08:08:31;;;;;;;16.27;3.07;;;9.10;99.90;;;;;;5083265;28;20482;-76
2023/11/08 08:11:17;;;;;;;5.73;2.53;;;9.10;99.90;;;;;;5076791;28;20479;-76
2023/11/08 08:14:04;;;;;;;10.53;2.77;;;9.20;99.90;;;;;;5060348;28;20452;-76
2023/11/08 08:16:51;;;;;;;13.63;2.93;;;9.20;99.90;;;;;;5076758;28;20454;-75
2023/11/08 08:19:36;;;;;;;5.53;2.67;;;9.20;99.90;;;;;;5078532;28;20439;-75
2023/11/08 08:22:23;;;;;;;13.17;2.73;;;9.30;99.90;;;;;;5074686;28;20816;-76
2023/11/08 08:25:11;;;;;;;4.63;2.07;;;9.40;99.90;;;;;;5065168;28;20467;-75
2023/11/08 08:27:56;;;;;;;8.93;3.50;;;9.30;99.90;;;;;;5070260;28;20466;-75
2023/11/08 08:30:43;;;;;;;10.47;2.80;;;9.30;99.90;;;;;;5064469;28;20538;-76
2023/11/08 08:33:29;;;;;;;5.10;2.60;;;9.40;99.90;;;;;;5070491;28;20521;-76
2023/11/08 08:36:15;;;;;;;11.73;2.27;;;9.40;99.90;;;;;;5077650;28;20655;-76
2023/11/08 08:39:00;;;;;;;7.47;2.90;;;9.40;99.90;;;;;;5065288;28;20439;-76
2023/11/08 08:41:46;;;;;;;13.77;3.53;;;9.40;99.90;;;;;;5078774;28;21078;-76
2023/11/08 08:44:32;;;;;;;8.43;2.43;;;9.40;99.90;;;;;;5076008;28;20448;-75
2023/11/08 08:47:19;;;;;;;12.80;4.00;;;9.40;99.90;;;;;;5071742;28;20451;-75
2023/11/08 08:50:05;;;;;;;10.90;2.60;;;9.50;99.90;;;;;;5079154;28;20832;-76
2023/11/08 08:52:50;;;;;;;4.90;2.13;;;9.50;99.90;;;;;;5075212;28;20820;-76
2023/11/08 08:55:36;;;;;;;8.23;2.00;;;9.50;99.90;;;;;;5069361;28;20439;-75
2023/11/08 08:58:22;;;;;;;5.20;1.97;;;9.60;99.90;;;;;;5075896;28;20440;-75
2023/11/08 09:01:11;;;;;;;8.13;2.20;;;9.50;99.90;;;;;;5071793;28;20478;-76
2023/11/08 09:03:58;;;;;;;5.37;2.10;;;9.50;99.90;;;;;;5081792;28;20454;-76
2023/11/08 09:06:43;;;;;;;4.40;2.00;;;9.60;99.90;;;;;;5069080;28;20448;-75
2023/11/08 09:09:29;;;;;;;6.10;2.40;;;9.70;99.90;;;;;;5063970;28;20494;-76
2023/11/08 09:12:14;;;;;;;6.93;1.90;;;9.80;99.90;;;;;;5100126;22;20492;-74
2023/11/08 09:15:01;;;;;;;6.87;2.20;;;9.80;99.90;;;;;;5074694;28;20447;-74
2023/11/08 09:17:48;;;;;;;5.00;2.73;;;9.80;99.90;;;;;;5082792;28;20442;-74
2023/11/08 09:20:36;;;;;;;4.60;2.20;;;9.90;99.90;;;;;;5072986;28;21015;-74
2023/11/08 09:23:22;;;;;;;4.10;1.77;;;10.00;99.90;;;;;;5078182;28;20507;-72
2023/11/08 09:26:09;;;;;;;7.40;1.77;;;10.00;99.90;;;;;;5081719;28;20448;-74
2023/11/08 09:28:55;;;;;;;4.70;1.33;;;10.00;99.90;;;;;;5084483;28;20464;-74
2023/11/08 09:31:41;;;;;;;7.80;1.90;;;10.00;99.90;;;;;;5078569;28;20611;-74
2023/11/08 09:34:28;;;;;;;4.70;1.67;;;10.00;99.90;;;;;;5062735;28;20452;-74
2023/11/08 09:37:14;;;;;;;2.50;1.30;;;10.00;99.90;;;;;;5071650;28;20523;-73
2023/11/08 09:40:00;;;;;;;13.13;1.53;;;9.90;99.90;;;;;;5078591;28;20449;-74
2023/11/08 09:42:46;;;;;;;5.27;1.93;;;9.80;99.90;;;;;;5084084;28;20499;-74
2023/11/08 09:45:32;;;;;;;5.23;1.60;;;9.70;99.90;;;;;;5078891;28;20444;-74
2023/11/08 09:48:21;;;;;;;4.00;1.70;;;9.80;99.90;;;;;;5071205;28;20488;-73
2023/11/08 09:51:07;;;;;;;6.83;2.10;;;9.70;99.90;;;;;;5068761;28;20614;-74
2023/11/08 09:53:54;;;;;;;10.03;2.13;;;9.70;99.90;;;;;;5075733;28;20840;-72
2023/11/08 09:56:43;;;;;;;9.17;1.43;;;9.80;99.90;;;;;;5079694;28;20465;-72
2023/11/08 09:59:31;;;;;;;3.23;1.47;;;9.80;99.90;;;;;;5084903;28;20437;-72
2023/11/08 10:02:18;;;;;;;3.63;1.33;;;9.90;99.90;;;;;;5068066;28;20473;-72
2023/11/08 10:05:05;;;;;;;4.83;1.60;;;9.80;99.90;;;;;;5081426;28;20451;-74
2023/11/08 10:07:52;;;;;;;4.20;1.30;;;9.80;99.90;;;;;;5076221;28;20543;-75
2023/11/08 10:10:42;;;;;;;4.43;1.60;;;9.90;99.90;;;;;;5074623;28;20481;-74
2023/11/08 10:13:42;;;;;;;13.07;1.80;;;9.90;99.90;;;;;;5080981;28;20433;-74
2023/11/08 10:16:27;;;;;;;6.63;1.70;;;9.90;99.90;;;;;;5086382;28;20432;-74
2023/11/08 10:19:14;;;;;;;5.27;1.53;;;10.00;99.90;;;;;;5084061;28;20410;-74
2023/11/08 10:22:00;;;;;;;6.93;1.57;;;10.00;99.90;;;;;;5082479;28;20983;-74
2023/11/08 10:24:55;;;;;;;4.17;1.60;;;10.00;99.90;;;;;;5086773;28;20505;-73
2023/11/08 10:27:42;;;;;;;5.43;1.47;;;9.90;99.90;;;;;;5083318;28;20428;-73
2023/11/08 10:30:32;;;;;;;10.30;1.90;;;9.90;99.90;;;;;;5063460;28;20576;-74
2023/11/08 10:33:18;;;;;;;4.67;1.50;;;9.80;99.90;;;;;;5072735;28;20456;-72
2023/11/08 10:36:05;;;;;;;4.70;1.50;;;9.80;99.90;;;;;;5069496;28;20456;-72
2023/11/08 10:38:50;;;;;;;4.70;1.57;;;9.90;99.90;;;;;;5080484;28;20438;-72
2023/11/08 10:41:37;;;;;;;3.27;1.40;;;9.90;99.90;;;;;;5077548;28;20930;-73
2023/11/08 10:44:31;;;;;;;6.47;1.40;;;10.00;99.90;;;;;;5083675;28;20432;-74
2023/11/08 10:47:16;;;;;;;6.00;1.50;;;10.10;99.90;;;;;;5078298;28;20495;-74
2023/11/08 10:50:05;;;;;;;3.13;1.50;;;10.20;99.90;;;;;;5082047;28;20463;-74
2023/11/08 10:52:52;;;;;;;6.23;1.43;;;10.20;99.90;;;;;;5084743;28;20435;-73
2023/11/08 10:55:37;;;;;;;5.17;1.60;;;10.20;99.90;;;;;;5081256;28;20433;-74
2023/11/08 10:58:27;;;;;;;5.47;1.40;;;10.20;99.90;;;;;;5080664;28;20562;-73
2023/11/08 11:01:14;;;;;;;4.43;1.60;;;10.20;99.90;;;;;;5082323;28;20970;-74
2023/11/08 11:04:06;;;;;;;4.23;1.30;;;10.20;99.90;;;;;;5087129;28;20395;-74
2023/11/08 11:06:55;;;;;;;4.33;1.50;;;10.10;99.90;;;;;;5086090;28;20887;-74
2023/11/08 11:09:41;;;;;;;3.30;0.97;;;10.10;99.90;;;;;;5082066;28;20466;-74
2023/11/08 11:12:36;;;;;;;4.90;1.47;;;10.20;99.90;;;;;;5081296;28;20536;-74
2023/11/08 11:15:30;;;;;;;6.13;1.70;;;10.20;99.90;;;;;;5083585;28;20438;-74
2023/11/08 11:18:20;;;;;;;4.77;1.33;;;10.10;99.90;;;;;;5074332;28;20447;-74
2023/11/08 11:21:16;;;;;;;4.60;1.20;;;10.10;99.90;;;;;;5068895;28;20507;-73
2023/11/08 11:24:01;;;;;;;4.23;1.60;;;10.10;99.90;;;;;;5076690;28;20427;-73
2023/11/08 11:26:47;;;;;;;5.67;1.40;;;10.20;99.90;;;;;;5085582;28;20427;-74
2023/11/08 11:29:34;;;;;;;2.40;1.47;;;10.20;99.90;;;;;;5079956;28;20564;-74
2023/11/08 11:32:34;;;;;;;5.30;1.40;;;10.30;99.90;;;;;;5081880;28;20490;-74
2023/11/08 11:35:43;;;;;;;8.00;1.60;;;10.40;99.90;;;;;;5084598;28;20432;-74
2023/11/08 11:38:28;;;;;;;4.50;1.70;;;10.50;99.90;;;;;;5078630;28;20790;-73
2023/11/08 11:41:22;;;;;;;20.00;1.87;;;10.40;99.90;;;;;;5076404;28;20482;-73
2023/11/08 11:44:10;;;;;;;3.40;1.50;;;10.50;99.90;;;;;;5083016;28;20483;-73
2023/11/08 11:46:56;;;;;;;2.33;1.20;;;10.50;99.90;;;;;;5085975;28;20801;-74
2023/11/08 11:49:47;;;;;;;4.53;1.63;;;10.50;99.90;;;;;;5076694;28;20439;-74
2023/11/08 11:52:36;;;;;;;3.87;1.70;;;10.50;99.90;;;;;;5085627;28;20444;-74
2023/11/08 11:55:22;;;;;;;6.20;2.23;;;10.50;99.90;;;;;;5083129;28;20889;-74
2023/11/08 11:58:10;;;;;;;3.50;1.87;;;10.60;99.90;;;;;;5084728;28;20433;-74
2023/11/08 12:00:57;;;;;;;7.50;2.10;;;10.60;99.90;;;;;;5078001;28;20487;-74
2023/11/08 12:03:42;;;;;;;6.63;1.80;;;10.60;99.90;;;;;;5082027;28;20433;-73
2023/11/08 12:06:29;;;;;;;3.10;1.43;;;10.70;99.90;;;;;;5083515;28;20432;-74
2023/11/08 12:09:15;;;;;;;5.43;1.83;;;10.60;99.90;;;;;;5079017;28;20479;-74
2023/11/08 12:12:01;;;;;;;6.47;1.63;;;10.60;99.90;;;;;;5081594;28;20451;-74
2023/11/08 12:14:47;;;;;;;3.03;1.23;;;10.50;99.90;;;;;;5085976;28;20427;-74
2023/11/08 12:17:33;;;;;;;3.23;1.60;;;10.60;99.90;;;;;;5088133;28;20430;-73
2023/11/08 12:20:21;;;;;;;6.23;2.03;;;10.60;99.90;;;;;;5083668;28;20448;-74
2023/11/08 12:23:06;;;;;;;5.00;2.43;;;10.70;99.90;;;;;;5076391;28;20534;-73
2023/11/08 12:25:53;;;;;;;3.13;1.97;;;10.70;99.90;;;;;;5079871;28;20424;-74
2023/11/08 12:28:40;;;;;;;3.77;1.60;;;10.70;99.90;;;;;;5079501;28;20446;-73
2023/11/08 12:31:27;;;;;;;6.50;1.57;;;10.70;99.90;;;;;;5083535;28;20463;-74
2023/11/08 12:34:15;;;;;;;7.00;2.00;;;10.80;99.90;;;;;;5085133;28;20427;-73
2023/11/08 12:37:01;;;;;;;4.10;1.77;;;10.80;99.90;;;;;;5070616;28;20497;-74
2023/11/08 12:39:47;;;;;;;4.33;1.50;;;10.80;99.90;;;;;;5077828;28;20837;-73
2023/11/08 12:42:34;;;;;;;4.50;1.50;;;10.90;99.90;;;;;;5066348;28;20460;-74
2023/11/08 12:45:30;;;;;;;8.93;1.43;;;10.90;99.90;;;;;;5074254;28;20472;-74
2023/11/08 12:48:15;;;;;;;2.73;1.40;;;11.00;99.90;;;;;;5080411;28;21054;-73
2023/11/08 12:51:03;;;;;;;3.37;1.10;;;11.00;99.90;;;;;;5085007;28;20738;-74
2023/11/08 12:53:48;;;;;;;3.47;1.30;;;10.90;99.90;;;;;;5075538;28;20423;-74
2023/11/08 12:56:38;;;;;;;3.23;1.63;;;11.00;99.90;;;;;;5073818;28;20563;-74
2023/11/08 12:59:25;;;;;;;3.60;1.30;;;11.10;99.90;;;;;;5077386;28;20440;-74
2023/11/08 13:02:14;;;;;;;4.63;1.60;;;11.20;99.90;;;;;;5070390;28;20465;-74
2023/11/08 13:05:00;;;;;;;5.60;1.43;;;11.20;99.90;;;;;;5074515;28;20494;-75
2023/11/08 13:07:46;;;;;;;5.43;1.50;;;11.20;99.90;;;;;;5077316;28;20442;-73
2023/11/08 13:10:32;;;;;;;4.83;1.40;;;11.20;99.90;;;;;;5072024;28;20551;-72
2023/11/08 13:13:17;;;;;;;2.10;1.27;;;11.10;99.90;;;;;;5068809;28;20507;-73
2023/11/08 13:16:06;;;;;;;4.40;1.27;;;11.10;99.90;;;;;;5072699;28;20554;-74
2023/11/08 13:18:52;;;;;;;3.37;1.33;;;11.10;99.90;;;;;;5076202;28;20451;-73
2023/11/08 13:21:38;;;;;;;3.90;1.57;;;11.00;99.90;;;;;;5085325;28;20443;-74
2023/11/08 13:24:24;;;;;;;3.67;1.70;;;11.00;99.90;;;;;;5076927;28;20979;-73
2023/11/08 13:27:09;;;;;;;4.43;1.30;;;11.00;99.90;;;;;;5076495;28;20963;-74
2023/11/08 13:29:57;;;;;;;2.67;1.30;;;11.00;99.90;;;;;;5086645;28;20471;-74
2023/11/08 13:32:44;;;;;;;3.03;1.60;;;10.90;99.90;;;;;;5074982;28;20460;-74
2023/11/08 13:35:29;;;;;;;5.00;2.77;;;11.00;99.90;;;;;;5074530;28;20452;-74
2023/11/08 13:38:17;;;;;;;2.57;1.50;;;11.00;99.90;;;;;;5075838;28;20547;-74
2023/11/08 13:41:03;;;;;;;3.53;1.50;;;11.00;99.90;;;;;;5069560;28;20482;-74
2023/11/08 13:43:48;;;;;;;5.50;2.13;;;11.00;99.90;;;;;;5078136;28;20418;-74
2023/11/08 13:46:34;;;;;;;4.67;1.70;;;11.20;99.90;;;;;;5081350;28;20479;-74
2023/11/08 13:49:23;;;;;;;3.23;1.60;;;11.30;99.90;;;;;;5081878;28;20478;-74
2023/11/08 13:52:08;;;;;;;3.00;1.50;;;11.50;99.90;;;;;;5078114;28;20480;-74
2023/11/08 13:54:54;;;;;;;3.53;1.40;;;11.50;99.90;;;;;;5079182;28;20518;-74
2023/11/08 13:57:40;;;;;;;4.27;1.57;;;11.50;99.90;;;;;;5073123;28;20487;-74
2023/11/08 14:00:26;;;;;;;4.67;2.53;;;11.50;99.90;;;;;;5074473;28;21021;-74
2023/11/08 14:03:11;;;;;;;4.60;1.90;;;11.50;99.90;;;;;;5074250;28;20454;-74
2023/11/08 14:05:58;;;;;;;3.20;1.53;;;11.40;99.90;;;;;;5076322;28;20444;-74
2023/11/08 14:08:44;;;;;;;4.83;1.50;;;11.30;99.90;;;;;;5085222;28;20584;-73
2023/11/08 14:11:30;;;;;;;3.23;1.80;;;11.30;99.90;;;;;;5077774;28;20557;-74
2023/11/08 14:14:15;;;;;;;3.20;1.93;;;11.30;99.90;;;;;;5066539;28;20449;-73
2023/11/08 14:17:01;;;;;;;5.67;2.70;;;11.30;99.90;;;;;;5074169;28;20966;-74
2023/11/08 14:19:47;;;;;;;5.53;1.80;;;11.30;99.90;;;;;;5085632;28;20441;-74
2023/11/08 14:22:37;;;;;;;4.67;1.57;;;11.30;99.90;;;;;;5078071;28;20994;-72
2023/11/08 14:25:23;;;;;;;4.03;1.27;;;11.40;99.90;;;;;;5074487;28;20449;-74
2023/11/08 14:28:09;;;;;;;6.80;2.00;;;11.40;99.90;;;;;;5075350;28;20571;-74
2023/11/08 14:30:54;;;;;;;2.20;1.30;;;11.40;99.90;;;;;;5089427;28;20613;-74
2023/11/08 14:33:40;;;;;;;2.57;1.50;;;11.40;99.90;;;;;;5082967;28;20536;-73